IPLVEN5 History tables / reports. Script index.php

Sélectionnez une autre période ( cacher cette zone )

Les unités Période Période personnalisée Directement à
métriques impériales les deux
par jour par semaine mensuel annuel
utiliser les deux sélecteurs de date pour une période personnalisée
précédent Jour
Avec cette date

Les graphiques de WeatherUnderground pour cette période ( cliquez ici ) Le chargement du graphique peut prendre jusqu'à une minute!



Warning: Division by zero in /htdocs/web/meteo/about/WU-History4.php on line 817
par jour Résumé pour Vendredi 2 Dec 2022
Heure Temp. ( °C ) Pt. de rosée ( °C ) Vent ( km/h ) Direction Rafale ( km/h ) Pression baro ( hPa ) Humid.( % ) Intensité ( mm ) Solaire ( W/m2 )
Élevé6,3 4,1 24,0 Est ( 758/1068 ) 35,0 1016,9 89 - 0
Moyenne4,8 2,8 12,9 Est #48/83 18,9 1015,6 87 - 0 #0/83
Basse2,1 0,4 -   0,0 1014,5 85 -  
par jour Détails du tableau pour Vendredi 2 Dec 2022
Heure Temp. ( °C ) Pt. de rosée ( °C ) Vent ( km/h ) Direction Rafale ( km/h ) Pression baro ( hPa ) Humid.( % ) Intensité ( mm ) Solaire ( W/m2 )
00:04 6,3 3,9 18,0 Est 24,0 1016,9 85 - -
00:09 6,2 3,9 16,0 ESE 26,0 1016,9 85 - -
00:14 6,1 3,8 16,0 Est 18,0 1016,7 85 - -
00:19 6,0 3,7 13,0 Est 18,0 1016,7 85 - -
00:24 5,9 3,6 16,0 Est 20,0 1016,7 86 - -
00:29 5,8 3,6 14,0 Est 20,0 1016,8 86 - -
00:34 5,7 3,5 12,0 Est 15,0 1016,8 86 - -
00:39 5,7 3,5 12,0 Est 18,0 1016,8 86 - -
00:44 5,7 3,5 12,0 Est 18,0 1016,6 86 - -
00:49 5,7 3,7 14,0 Est 22,0 1016,6 87 - -
00:54 5,8 3,8 22,0 Est 30,0 1016,5 87 - -
00:59 5,7 3,7 22,0 Est 35,0 1016,5 87 - -
01:04 5,8 3,8 21,0 Est 33,0 1016,4 87 - -
01:09 5,9 3,9 13,0 Est 33,0 1016,4 87 - -
01:14 5,9 3,9 13,0 Est 20,0 1016,3 87 - -
01:19 6,0 4,0 13,0 Est 22,0 1016,3 87 - -
01:24 6,0 4,0 19,0 Est 30,0 1016,2 87 - -
01:29 6,1 4,1 21,0 Est 33,0 1016,2 87 - -
01:34 6,1 4,1 12,0 Est 20,0 1016,2 87 - -
01:39 6,0 4,0 17,0 Est 22,0 1016,2 87 - -
01:44 6,0 4,0 15,0 Est 22,0 1016,1 87 - -
01:49 6,0 4,0 16,0 ENE 22,0 1016,0 87 - -
01:54 6,0 3,8 21,0 Est 33,0 1016,0 86 - -
01:59 6,0 3,8 24,0 Est 33,0 1015,9 86 - -
02:04 6,0 3,8 16,0 Est 24,0 1016,0 86 - -
02:09 6,0 3,8 12,0 Est 18,0 1016,0 86 - -
02:14 5,8 3,6 12,0 Est 18,0 1016,0 86 - -
02:19 5,7 3,5 12,0 Est 18,0 1015,9 86 - -
02:24 5,7 3,7 17,0 ENE 22,0 1015,8 87 - -
02:29 5,6 3,6 15,0 Est 18,0 1015,8 87 - -
02:34 5,6 3,6 16,0 Est 24,0 1015,8 87 - -
02:39 5,6 3,6 14,0 ENE 18,0 1015,9 87 - -
02:44 5,6 3,5 20,0 Est 24,0 1015,8 86 - -
02:49 5,6 3,5 15,0 Est 24,0 1015,6 86 - -
02:54 5,6 3,5 19,0 ENE 26,0 1015,8 86 - -
02:59 5,5 3,4 15,0 ENE 22,0 1015,7 86 - -
03:04 5,5 3,4 18,0 Est 26,0 1015,6 86 - -
03:09 5,5 3,4 22,0 Est 30,0 1015,7 86 - -
03:14 5,5 3,4 22,0 Est 30,0 1015,7 86 - -
03:19 5,5 3,4 13,0 SE 18,0 1015,7 86 - -
03:24 5,3 3,2 11,0 Est 17,0 1015,6 86 - -
03:29 5,1 3,0 19,0 Est 26,0 1015,7 86 - -
03:34 5,0 3,0 14,0 Est 24,0 1015,6 87 - -
03:39 5,0 3,0 18,0 Est 35,0 1015,5 87 - -
03:44 4,9 2,9 19,0 Est 28,0 1015,6 87 - -
03:49 4,8 2,8 20,0 ESE 24,0 1015,5 87 - -
03:54 4,7 2,7 14,0 ESE 20,0 1015,5 87 - -
03:59 4,6 2,6 16,0 ESE 22,0 1015,7 87 - -
04:04 4,3 2,3 16,0 ESE 24,0 1015,4 87 - -
04:09 4,2 2,4 19,0 Est 24,0 1015,4 88 - -
04:14 4,2 2,4 21,0 ESE 28,0 1015,5 88 - -
04:19 4,2 2,4 17,0 ESE 28,0 1015,4 88 - -
04:24 4,1 2,3 16,0 Est 22,0 1015,2 88 - -
04:29 4,0 2,2 16,0 Est 20,0 1015,2 88 - -
04:34 4,0 2,2 14,0 ESE 18,0 1015,2 88 - -
04:39 4,0 2,2 13,0 Est 20,0 1015,1 88 - -
04:44 4,0 2,2 13,0 Est 18,0 1015,2 88 - -
04:49 3,9 2,1 16,0 Est 22,0 1015,2 88 - -
04:54 3,9 2,1 14,0 ESE 20,0 1015,0 88 - -
04:59 4,0 2,2 14,0 ESE 30,0 1014,9 88 - -
05:04 4,0 2,2 11,0 ESE 13,0 1015,0 88 - -
05:09 4,1 2,5 16,0 Est 24,0 1014,8 89 - -
05:14 4,2 2,6 15,0 Est 24,0 1014,8 89 - -
05:19 4,2 2,6 10,0 Est 17,0 1014,8 89 - -
05:24 4,2 2,6 8,0 SE 11,0 1015,0 89 - -
05:29 4,2 2,6 3,0 Sud 4,0 1014,8 89 - -
05:34 4,0 2,2 3,0 SE 5,0 1014,9 88 - -
05:39 3,8 2,0 4,0 ESE 5,0 1014,9 88 - -
05:44 3,7 1,9 1,0 Ouest 4,0 1014,9 88 - -
05:49 3,5 1,7 3,0 Est 5,0 1014,8 88 - -
05:54 3,4 1,6 7,0 ENE 7,0 1014,7 88 - -
05:59 3,3 1,5 2,0 SSE 4,0 1014,6 88 - -
06:04 3,3 1,5 3,0 Sud 4,0 1014,7 88 - -
06:09 3,1 1,3 3,0 Sud 4,0 1014,8 88 - -
06:14 3,0 1,2   calme   1014,8 88 - -
06:19 3,0 1,2 2,0 SO 2,0 1014,7 88 - -
06:24 2,8 1,0 1,0 Sud 2,0 1014,7 88 - -
06:29 2,6 0,8 1,0 SSE 2,0 1014,6 88 - -
06:34 2,5 0,7 2,0 SO 4,0 1014,7 88 - -
06:39 2,4 0,6   calme 2,0 1014,5 88 - -
06:44 2,3 0,5 1,0 SE 4,0 1014,8 88 - -
06:49 2,2 0,4 2,0 SE 2,0 1014,5 88 - -
06:54 2,1 0,5   calme   1014,5 89 - -
par jour Résumé pour Vendredi 2 Dec 2022
Heure Temp. ( °C ) Pt. de rosée ( °C ) Vent ( km/h ) Direction Rafale ( km/h ) Pression baro ( hPa ) Humid.( % ) Intensité ( mm ) Solaire ( W/m2 )
Élevé6,3 4,1 24,0 Est ( 758/1068 ) 35,0 1016,9 89 - 0
Moyenne4,8 2,8 12,9 Est #48/83 18,9 1015,6 87 - 0 #0/83
Basse2,1 0,4 -   0,0 1014,5 85 -  
par jour Détails du tableau pour Vendredi 2 Dec 2022
Heure Temp. ( °C ) Pt. de rosée ( °C ) Vent ( km/h ) Direction Rafale ( km/h ) Pression baro ( hPa ) Humid.( % ) Intensité ( mm ) Solaire ( W/m2 )
00:04 6,3 3,9 18,0 Est 24,0 1016,9 85 - -
00:09 6,2 3,9 16,0 ESE 26,0 1016,9 85 - -
00:14 6,1 3,8 16,0 Est 18,0 1016,7 85 - -
00:19 6,0 3,7 13,0 Est 18,0 1016,7 85 - -
00:24 5,9 3,6 16,0 Est 20,0 1016,7 86 - -
00:29 5,8 3,6 14,0 Est 20,0 1016,8 86 - -
00:34 5,7 3,5 12,0 Est 15,0 1016,8 86 - -
00:39 5,7 3,5 12,0 Est 18,0 1016,8 86 - -
00:44 5,7 3,5 12,0 Est 18,0 1016,6 86 - -
00:49 5,7 3,7 14,0 Est 22,0 1016,6 87 - -
00:54 5,8 3,8 22,0 Est 30,0 1016,5 87 - -
00:59 5,7 3,7 22,0 Est 35,0 1016,5 87 - -
01:04 5,8 3,8 21,0 Est 33,0 1016,4 87 - -
01:09 5,9 3,9 13,0 Est 33,0 1016,4 87 - -
01:14 5,9 3,9 13,0 Est 20,0 1016,3 87 - -
01:19 6,0 4,0 13,0 Est 22,0 1016,3 87 - -
01:24 6,0 4,0 19,0 Est 30,0 1016,2 87 - -
01:29 6,1 4,1 21,0 Est 33,0 1016,2 87 - -
01:34 6,1 4,1 12,0 Est 20,0 1016,2 87 - -
01:39 6,0 4,0 17,0 Est 22,0 1016,2 87 - -
01:44 6,0 4,0 15,0 Est 22,0 1016,1 87 - -
01:49 6,0 4,0 16,0 ENE 22,0 1016,0 87 - -
01:54 6,0 3,8 21,0 Est 33,0 1016,0 86 - -
01:59 6,0 3,8 24,0 Est 33,0 1015,9 86 - -
02:04 6,0 3,8 16,0 Est 24,0 1016,0 86 - -
02:09 6,0 3,8 12,0 Est 18,0 1016,0 86 - -
02:14 5,8 3,6 12,0 Est 18,0 1016,0 86 - -
02:19 5,7 3,5 12,0 Est 18,0 1015,9 86 - -
02:24 5,7 3,7 17,0 ENE 22,0 1015,8 87 - -
02:29 5,6 3,6 15,0 Est 18,0 1015,8 87 - -
02:34 5,6 3,6 16,0 Est 24,0 1015,8 87 - -
02:39 5,6 3,6 14,0 ENE 18,0 1015,9 87 - -
02:44 5,6 3,5 20,0 Est 24,0 1015,8 86 - -
02:49 5,6 3,5 15,0 Est 24,0 1015,6 86 - -
02:54 5,6 3,5 19,0 ENE 26,0 1015,8 86 - -
02:59 5,5 3,4 15,0 ENE 22,0 1015,7 86 - -
03:04 5,5 3,4 18,0 Est 26,0 1015,6 86 - -
03:09 5,5 3,4 22,0 Est 30,0 1015,7 86 - -
03:14 5,5 3,4 22,0 Est 30,0 1015,7 86 - -
03:19 5,5 3,4 13,0 SE 18,0 1015,7 86 - -
03:24 5,3 3,2 11,0 Est 17,0 1015,6 86 - -
03:29 5,1 3,0 19,0 Est 26,0 1015,7 86 - -
03:34 5,0 3,0 14,0 Est 24,0 1015,6 87 - -
03:39 5,0 3,0 18,0 Est 35,0 1015,5 87 - -
03:44 4,9 2,9 19,0 Est 28,0 1015,6 87 - -
03:49 4,8 2,8 20,0 ESE 24,0 1015,5 87 - -
03:54 4,7 2,7 14,0 ESE 20,0 1015,5 87 - -
03:59 4,6 2,6 16,0 ESE 22,0 1015,7 87 - -
04:04 4,3 2,3 16,0 ESE 24,0 1015,4 87 - -
04:09 4,2 2,4 19,0 Est 24,0 1015,4 88 - -
04:14 4,2 2,4 21,0 ESE 28,0 1015,5 88 - -
04:19 4,2 2,4 17,0 ESE 28,0 1015,4 88 - -
04:24 4,1 2,3 16,0 Est 22,0 1015,2 88 - -
04:29 4,0 2,2 16,0 Est 20,0 1015,2 88 - -
04:34 4,0 2,2 14,0 ESE 18,0 1015,2 88 - -
04:39 4,0 2,2 13,0 Est 20,0 1015,1 88 - -
04:44 4,0 2,2 13,0 Est 18,0 1015,2 88 - -
04:49 3,9 2,1 16,0 Est 22,0 1015,2 88 - -
04:54 3,9 2,1 14,0 ESE 20,0 1015,0 88 - -
04:59 4,0 2,2 14,0 ESE 30,0 1014,9 88 - -
05:04 4,0 2,2 11,0 ESE 13,0 1015,0 88 - -
05:09 4,1 2,5 16,0 Est 24,0 1014,8 89 - -
05:14 4,2 2,6 15,0 Est 24,0 1014,8 89 - -
05:19 4,2 2,6 10,0 Est 17,0 1014,8 89 - -
05:24 4,2 2,6 8,0 SE 11,0 1015,0 89 - -
05:29 4,2 2,6 3,0 Sud 4,0 1014,8 89 - -
05:34 4,0 2,2 3,0 SE 5,0 1014,9 88 - -
05:39 3,8 2,0 4,0 ESE 5,0 1014,9 88 - -
05:44 3,7 1,9 1,0 Ouest 4,0 1014,9 88 - -
05:49 3,5 1,7 3,0 Est 5,0 1014,8 88 - -
05:54 3,4 1,6 7,0 ENE 7,0 1014,7 88 - -
05:59 3,3 1,5 2,0 SSE 4,0 1014,6 88 - -
06:04 3,3 1,5 3,0 Sud 4,0 1014,7 88 - -
06:09 3,1 1,3 3,0 Sud 4,0 1014,8 88 - -
06:14 3,0 1,2   calme   1014,8 88 - -
06:19 3,0 1,2 2,0 SO 2,0 1014,7 88 - -
06:24 2,8 1,0 1,0 Sud 2,0 1014,7 88 - -
06:29 2,6 0,8 1,0 SSE 2,0 1014,6 88 - -
06:34 2,5 0,7 2,0 SO 4,0 1014,7 88 - -
06:39 2,4 0,6   calme 2,0 1014,5 88 - -
06:44 2,3 0,5 1,0 SE 4,0 1014,8 88 - -
06:49 2,2 0,4 2,0 SE 2,0 1014,5 88 - -
06:54 2,1 0,5   calme   1014,5 89 - -

Téléchargez votre copie de cet ensemble de données  à partir de WeatherUnderground

Nos données météo stockées sur Weather Underground. Script développé par Jim McMurry. Réécrit pour l'utilisation du modèle Leuven-Template